Airfield :
LOGIN :

Register | Disclaimer

   EN    FR    IT 

 










Legend :    VFR   Marginal VFR   IFR   Intensive IFR   Very Intensive IFR
Visi :
Ceiling :
>= 8 km
>= 3000ft
5 to 8 km
1000 to 3000 ft
1500m to 5 km
500 to 1000 ft
800 to 1500m
200 to 500 ft
< 800m
< 200 ft
Symbols :   Thunderstorms  Fog  Heavy snow  Heavy precipitations  Wind > 20 kt
SIGMETs :     Misc.  Thunderstorms  Icing  Turbulence  Mountain Waves  Volcanic Ashes







- Airport Elevation : 605 ft
- IATA code : BAY


LRBM - Tautii Magheraus

CURRENT METAR :
  • 170500Z 13005KT 110V170 CAVOK 21/16 Q1016

EXPIRED METARs :
  • 170430Z AUTO 10005KT 9999 FEW055/// SCT240/// 20/16 Q1016
  • 170400Z AUTO 10005KT 9999 FEW035/// SCT220/// 20/16 Q1016
  • 170330Z AUTO 09006KT 9999 FEW014/// SCT230/// 19/16 Q1016
  • 170300Z AUTO 09006KT 9999 FEW016/// SCT240/// 19/16 Q1016
  • 170230Z AUTO 08006KT 9999 FEW017/// SCT240/// ///// Q1016

TAF TAF LRBM
Valid from the 17 at 06:00 until the 17 at 15:00 UTC


170500Z 1706/1715 VRB04KT CAVOK
TEMPO 1710/1715 VRB20G30KT 3000 TSRA BKN010 BKN030CB
No reported NOTAMs for that airfield.



MET'MAP, your aeronautical weather chart ! - Copyright ORBIFLY December 2007 - Disclaimer

ORBIFLY MET'MAP TEAM :

Programming & Development : Alexandra Zaïnal
Concept & Development : Baudouin d'Aumeries
Co-Development & Prog : Marc-Olivier Méhu
Technical & hardware support : Manuel Goepfert

Contact : metmap@orbifly.com




SOURCES & CREDITS :

   NOAA